Time;durP1;ratioP1;P1;durP2;ratioP2;P2;SDS_P1;SDS_P2;PMS_P1;PMS_P2;Temp;Humidity;BMP_temperature;BMP_pressure;BME280_temperature;BME280_humidity;BME280_pressure;Samples;Min_cycle;Max_cycle;Signal;HPM_P1;HPM_P2
2021/08/22 00:00:15;;;;;;;10.1;9.049999;;;;;;;16.94;86.77832;95280.94;;;;
2021/08/22 00:01:16;;;;;;;10.1;9.049999;;;;;;;16.94;86.77832;95280.94;;;;
2021/08/22 00:02:16;;;;;;;10.1;9.049999;;;;;;;16.94;86.77832;95280.94;;;;
2021/08/22 00:03:17;;;;;;;10.1;9.049999;;;;;;;16.94;86.77832;95280.94;;;;
2021/08/22 00:04:17;;;;;;;10.1;9.049999;;;;;;;16.94;86.77832;95280.94;;;;
2021/08/22 00:05:18;;;;;;;10.1;9.049999;;;;;;;16.94;86.77832;95280.94;;;;
2021/08/22 00:06:19;;;;;;;10.1;9.049999;;;;;;;16.94;86.77832;95280.94;;;;
2021/08/22 00:07:19;;;;;;;10.1;9.049999;;;;;;;16.94;86.77832;95280.94;;;;
2021/08/22 00:08:20;;;;;;;9.349998;8.5;;;;;;;16.99;87.05664;95283.78;;;;
2021/08/22 00:09:20;;;;;;;9.349998;8.5;;;;;;;16.99;87.05664;95283.78;;;;
2021/08/22 00:10:21;;;;;;;9.349998;8.5;;;;;;;16.99;87.05664;95283.78;;;;
2021/08/22 00:11:22;;;;;;;9.349998;8.5;;;;;;;16.99;87.05664;95283.78;;;;
2021/08/22 00:12:23;;;;;;;9.349998;8.5;;;;;;;16.99;87.05664;95283.78;;;;
2021/08/22 00:13:23;;;;;;;9.349998;8.5;;;;;;;16.99;87.05664;95283.78;;;;
2021/08/22 00:14:24;;;;;;;9.349998;8.5;;;;;;;16.99;87.05664;95283.78;;;;
2021/08/22 00:15:25;;;;;;;9.349998;8.5;;;;;;;16.99;87.05664;95283.78;;;;
2021/08/22 00:16:26;;;;;;;9.349998;8.5;;;;;;;16.99;87.05664;95283.78;;;;
2021/08/22 00:17:27;;;;;;;9.349998;8.5;;;;;;;16.99;87.05664;95283.78;;;;
2021/08/22 00:18:27;;;;;;;10.5;9.4;;;;;;;17.06;87.00684;95291;;;;
2021/08/22 00:19:29;;;;;;;10.5;9.4;;;;;;;17.06;87.00684;95291;;;;
2021/08/22 00:20:30;;;;;;;10.5;9.4;;;;;;;17.06;87.00684;95291;;;;
2021/08/22 00:21:30;;;;;;;10.5;9.4;;;;;;;17.06;87.00684;95291;;;;
2021/08/22 00:22:31;;;;;;;10.5;9.4;;;;;;;17.06;87.00684;95291;;;;
2021/08/22 00:23:32;;;;;;;10.5;9.4;;;;;;;17.06;87.00684;95291;;;;
2021/08/22 00:24:33;;;;;;;10.5;9.4;;;;;;;17.06;87.00684;95291;;;;
2021/08/22 00:25:33;;;;;;;10.5;9.4;;;;;;;17.06;87.00684;95291;;;;
2021/08/22 00:26:34;;;;;;;10.5;9.4;;;;;;;17.06;87.00684;95291;;;;
2021/08/22 00:27:34;;;;;;;10.5;9.4;;;;;;;17.06;87.00684;95291;;;;
2021/08/22 00:28:35;;;;;;;10.5;9.4;;;;;;;17.06;87.00684;95291;;;;
2021/08/22 00:29:35;;;;;;;9.150002;8.25;;;;;;;17.14;86.93652;95276.78;;;;
2021/08/22 00:30:36;;;;;;;9.150002;8.25;;;;;;;17.14;86.93652;95276.78;;;;
2021/08/22 00:31:37;;;;;;;9.150002;8.25;;;;;;;17.14;86.93652;95276.78;;;;
2021/08/22 00:32:38;;;;;;;9.150002;8.25;;;;;;;17.14;86.93652;95276.78;;;;
2021/08/22 00:33:38;;;;;;;9.150002;8.25;;;;;;;17.14;86.93652;95276.78;;;;
2021/08/22 00:34:39;;;;;;;9.150002;8.25;;;;;;;17.14;86.93652;95276.78;;;;
2021/08/22 00:35:39;;;;;;;9.150002;8.25;;;;;;;17.14;86.93652;95276.78;;;;
2021/08/22 00:36:40;;;;;;;9.150002;8.25;;;;;;;17.14;86.93652;95276.78;;;;
2021/08/22 00:37:41;;;;;;;9.150002;8.25;;;;;;;17.14;86.93652;95276.78;;;;
2021/08/22 00:38:41;;;;;;;9.150002;8.25;;;;;;;17.14;86.93652;95276.78;;;;
2021/08/22 00:39:42;;;;;;;9.150002;8.25;;;;;;;17.28;86.77832;95283.03;;;;
2021/08/22 00:40:42;;;;;;;9.150002;8.25;;;;;;;17.28;86.77832;95283.03;;;;
2021/08/22 00:41:43;;;;;;;9.150002;8.25;;;;;;;17.28;86.77832;95283.03;;;;
2021/08/22 00:42:45;;;;;;;9.150002;8.25;;;;;;;17.28;86.77832;95283.03;;;;
2021/08/22 00:43:46;;;;;;;9.150002;8.25;;;;;;;17.28;86.77832;95283.03;;;;
2021/08/22 00:44:46;;;;;;;9.150002;8.25;;;;;;;17.28;86.77832;95283.03;;;;
2021/08/22 00:45:47;;;;;;;9.150002;8.25;;;;;;;17.28;86.77832;95283.03;;;;
2021/08/22 00:46:47;;;;;;;9.150002;8.25;;;;;;;17.28;86.77832;95283.03;;;;
2021/08/22 00:47:48;;;;;;;9.150002;8.25;;;;;;;17.28;86.77832;95283.03;;;;
2021/08/22 00:48:49;;;;;;;9.150002;8.25;;;;;;;17.28;86.77832;95283.03;;;;
2021/08/22 00:49:50;;;;;;;9.150002;8.25;;;;;;;17.28;86.77832;95283.03;;;;
2021/08/22 00:50:52;;;;;;;8.950002;8.1;;;;;;;17.37;86.69727;95275.9;;;;
2021/08/22 00:51:52;;;;;;;8.950002;8.1;;;;;;;17.37;86.69727;95275.9;;;;
2021/08/22 00:52:54;;;;;;;8.950002;8.1;;;;;;;17.37;86.69727;95275.9;;;;
2021/08/22 00:53:54;;;;;;;8.950002;8.1;;;;;;;17.37;86.69727;95275.9;;;;
2021/08/22 00:54:55;;;;;;;8.950002;8.1;;;;;;;17.37;86.69727;95275.9;;;;
2021/08/22 00:55:58;;;;;;;8.950002;8.1;;;;;;;17.37;86.69727;95275.9;;;;
2021/08/22 00:56:58;;;;;;;8.950002;8.1;;;;;;;17.37;86.69727;95275.9;;;;
2021/08/22 00:57:59;;;;;;;8.950002;8.1;;;;;;;17.37;86.69727;95275.9;;;;
2021/08/22 00:58:59;;;;;;;8.950002;8.1;;;;;;;17.37;86.69727;95275.9;;;;
2021/08/22 01:00:01;;;;;;;8.950002;8.1;;;;;;;17.37;86.69727;95275.9;;;;
2021/08/22 01:01:06;;;;;;;8.85;7.999999;;;;;;;17.38;86.71191;95273.85;;;;
2021/08/22 01:02:14;;;;;;;8.85;7.999999;;;;;;;17.38;86.71191;95273.85;;;;
2021/08/22 01:03:24;;;;;;;8.85;7.999999;;;;;;;17.38;86.71191;95273.85;;;;
2021/08/22 01:04:34;;;;;;;8.85;7.999999;;;;;;;17.38;86.71191;95273.85;;;;
2021/08/22 01:05:43;;;;;;;8.85;7.999999;;;;;;;17.38;86.71191;95273.85;;;;
2021/08/22 01:06:50;;;;;;;8.85;7.999999;;;;;;;17.38;86.71191;95273.85;;;;
2021/08/22 01:07:58;;;;;;;8.85;7.999999;;;;;;;17.38;86.71191;95273.85;;;;
2021/08/22 01:09:05;;;;;;;8.85;7.999999;;;;;;;17.38;86.71191;95273.85;;;;
2021/08/22 01:10:11;;;;;;;8.85;7.999999;;;;;;;17.38;86.71191;95273.85;;;;
2021/08/22 01:11:18;;;;;;;8.85;7.999999;;;;;;;17.38;86.71191;95273.85;;;;
2021/08/22 01:12:24;;;;;;;8.549999;7.65;;;;;;;17.46;86.75;95270.97;;;;
2021/08/22 01:13:28;;;;;;;8.549999;7.65;;;;;;;17.46;86.75;95270.97;;;;
2021/08/22 01:14:35;;;;;;;8.549999;7.65;;;;;;;17.46;86.75;95270.97;;;;
2021/08/22 01:15:39;;;;;;;8.549999;7.65;;;;;;;17.46;86.75;95270.97;;;;
2021/08/22 01:16:44;;;;;;;8.549999;7.65;;;;;;;17.46;86.75;95270.97;;;;
2021/08/22 01:17:49;;;;;;;8.549999;7.65;;;;;;;17.46;86.75;95270.97;;;;
2021/08/22 01:18:52;;;;;;;8.549999;7.65;;;;;;;17.46;86.75;95270.97;;;;
2021/08/22 01:19:56;;;;;;;8.549999;7.65;;;;;;;17.46;86.75;95270.97;;;;
2021/08/22 01:21:04;;;;;;;8.549999;7.65;;;;;;;17.46;86.75;95270.97;;;;
2021/08/22 01:22:10;;;;;;;8.75;7.95;;;;;;;17.56;86.64941;95266.02;;;;
2021/08/22 01:23:11;;;;;;;8.75;7.95;;;;;;;17.56;86.64941;95266.02;;;;
2021/08/22 01:24:13;;;;;;;8.75;7.95;;;;;;;17.56;86.64941;95266.02;;;;
2021/08/22 01:25:18;;;;;;;8.75;7.95;;;;;;;17.56;86.64941;95266.02;;;;
2021/08/22 01:26:20;;;;;;;8.75;7.95;;;;;;;17.56;86.64941;95266.02;;;;
2021/08/22 01:27:26;;;;;;;8.75;7.95;;;;;;;17.56;86.64941;95266.02;;;;
2021/08/22 01:28:28;;;;;;;8.75;7.95;;;;;;;17.56;86.64941;95266.02;;;;
2021/08/22 01:29:29;;;;;;;8.75;7.95;;;;;;;17.56;86.64941;95266.02;;;;
2021/08/22 01:30:31;;;;;;;8.75;7.95;;;;;;;17.56;86.64941;95266.02;;;;
2021/08/22 01:31:39;;;;;;;8.75;7.95;;;;;;;17.56;86.64941;95266.02;;;;
2021/08/22 01:32:46;;;;;;;7.95;7.150001;;;;;;;17.7;86.52539;95252.47;;;;
2021/08/22 01:33:51;;;;;;;7.95;7.150001;;;;;;;17.7;86.52539;95252.47;;;;
2021/08/22 01:34:54;;;;;;;7.95;7.150001;;;;;;;17.7;86.52539;95252.47;;;;
2021/08/22 01:35:54;;;;;;;7.95;7.150001;;;;;;;17.7;86.52539;95252.47;;;;
2021/08/22 01:36:55;;;;;;;7.95;7.150001;;;;;;;17.7;86.52539;95252.47;;;;
2021/08/22 01:37:57;;;;;;;7.95;7.150001;;;;;;;17.7;86.52539;95252.47;;;;
2021/08/22 01:38:57;;;;;;;7.95;7.150001;;;;;;;17.7;86.52539;95252.47;;;;
2021/08/22 01:39:58;;;;;;;7.95;7.150001;;;;;;;17.7;86.52539;95252.47;;;;
2021/08/22 01:41:00;;;;;;;7.95;7.150001;;;;;;;17.7;86.52539;95252.47;;;;
2021/08/22 01:42:01;;;;;;;7.95;7.150001;;;;;;;17.7;86.52539;95252.47;;;;
2021/08/22 01:43:04;;;;;;;7.95;7.150001;;;;;;;17.7;86.52539;95252.47;;;;
2021/08/22 01:44:05;;;;;;;8.450002;7.65;;;;;;;17.75;86.33887;95244.65;;;;
2021/08/22 01:45:06;;;;;;;8.450002;7.65;;;;;;;17.75;86.33887;95244.65;;;;
2021/08/22 01:46:09;;;;;;;8.450002;7.65;;;;;;;17.75;86.33887;95244.65;;;;
2021/08/22 01:47:11;;;;;;;8.450002;7.65;;;;;;;17.75;86.33887;95244.65;;;;
2021/08/22 01:48:11;;;;;;;8.450002;7.65;;;;;;;17.75;86.33887;95244.65;;;;
2021/08/22 01:49:13;;;;;;;8.450002;7.65;;;;;;;17.75;86.33887;95244.65;;;;
2021/08/22 01:50:14;;;;;;;8.450002;7.65;;;;;;;17.75;86.33887;95244.65;;;;
2021/08/22 01:51:17;;;;;;;8.450002;7.65;;;;;;;17.75;86.33887;95244.65;;;;
2021/08/22 01:52:17;;;;;;;8.450002;7.65;;;;;;;17.75;86.33887;95244.65;;;;
2021/08/22 01:53:18;;;;;;;8.450002;7.65;;;;;;;17.75;86.33887;95244.65;;;;
2021/08/22 01:54:18;;;;;;;8.8;7.3;;;;;;;17.72;86.43164;95276.61;;;;
2021/08/22 01:55:19;;;;;;;8.8;7.3;;;;;;;17.72;86.43164;95276.61;;;;
2021/08/22 01:56:19;;;;;;;8.8;7.3;;;;;;;17.72;86.43164;95276.61;;;;
2021/08/22 01:57:20;;;;;;;8.8;7.3;;;;;;;17.72;86.43164;95276.61;;;;
2021/08/22 01:58:21;;;;;;;8.8;7.3;;;;;;;17.72;86.43164;95276.61;;;;
2021/08/22 01:59:22;;;;;;;8.8;7.3;;;;;;;17.72;86.43164;95276.61;;;;
2021/08/22 02:00:22;;;;;;;8.8;7.3;;;;;;;17.72;86.43164;95276.61;;;;
2021/08/22 02:01:23;;;;;;;8.8;7.3;;;;;;;17.72;86.43164;95276.61;;;;
2021/08/22 02:02:24;;;;;;;8.8;7.3;;;;;;;17.72;86.43164;95276.61;;;;
2021/08/22 02:03:24;;;;;;;8.8;7.3;;;;;;;17.72;86.43164;95276.61;;;;
2021/08/22 02:04:31;;;;;;;8.8;7.3;;;;;;;17.72;86.43164;95276.61;;;;
2021/08/22 02:05:39;;;;;;;8.6;7.8;;;;;;;17.67;86.55371;95293.44;;;;
2021/08/22 02:06:41;;;;;;;8.6;7.8;;;;;;;17.67;86.55371;95293.44;;;;
2021/08/22 02:07:47;;;;;;;8.6;7.8;;;;;;;17.67;86.55371;95293.44;;;;
2021/08/22 02:08:47;;;;;;;8.6;7.8;;;;;;;17.67;86.55371;95293.44;;;;
2021/08/22 02:09:51;;;;;;;8.6;7.8;;;;;;;17.67;86.55371;95293.44;;;;
2021/08/22 02:10:59;;;;;;;8.6;7.8;;;;;;;17.67;86.55371;95293.44;;;;
2021/08/22 02:12:06;;;;;;;8.6;7.8;;;;;;;17.67;86.55371;95293.44;;;;
2021/08/22 02:13:14;;;;;;;8.6;7.8;;;;;;;17.67;86.55371;95293.44;;;;
2021/08/22 02:14:16;;;;;;;8.6;7.8;;;;;;;17.67;86.55371;95293.44;;;;
2021/08/22 02:15:20;;;;;;;8.6;7.8;;;;;;;17.67;86.55371;95293.44;;;;
2021/08/22 02:16:25;;;;;;;8.65;7.600001;;;;;;;17.72;86.76758;95302.14;;;;
2021/08/22 02:17:28;;;;;;;8.65;7.600001;;;;;;;17.72;86.76758;95302.14;;;;
2021/08/22 02:18:33;;;;;;;8.65;7.600001;;;;;;;17.72;86.76758;95302.14;;;;
2021/08/22 02:19:35;;;;;;;8.65;7.600001;;;;;;;17.72;86.76758;95302.14;;;;
2021/08/22 02:20:38;;;;;;;8.65;7.600001;;;;;;;17.72;86.76758;95302.14;;;;
2021/08/22 02:21:39;;;;;;;8.65;7.600001;;;;;;;17.72;86.76758;95302.14;;;;
2021/08/22 02:22:42;;;;;;;8.65;7.600001;;;;;;;17.72;86.76758;95302.14;;;;
2021/08/22 02:23:43;;;;;;;8.65;7.600001;;;;;;;17.72;86.76758;95302.14;;;;
2021/08/22 02:24:44;;;;;;;8.65;7.600001;;;;;;;17.72;86.76758;95302.14;;;;
2021/08/22 02:25:45;;;;;;;8.65;7.600001;;;;;;;17.72;86.76758;95302.14;;;;
2021/08/22 02:26:46;;;;;;;8.6;7.65;;;;;;;17.71;86.53809;95298.74;;;;
2021/08/22 02:27:46;;;;;;;8.6;7.65;;;;;;;17.71;86.53809;95298.74;;;;
2021/08/22 02:28:47;;;;;;;8.6;7.65;;;;;;;17.71;86.53809;95298.74;;;;
2021/08/22 02:29:52;;;;;;;8.6;7.65;;;;;;;17.71;86.53809;95298.74;;;;
2021/08/22 02:30:52;;;;;;;8.6;7.65;;;;;;;17.71;86.53809;95298.74;;;;
2021/08/22 02:31:53;;;;;;;8.6;7.65;;;;;;;17.71;86.53809;95298.74;;;;
2021/08/22 02:32:53;;;;;;;8.6;7.65;;;;;;;17.71;86.53809;95298.74;;;;
2021/08/22 02:33:54;;;;;;;8.6;7.65;;;;;;;17.71;86.53809;95298.74;;;;
2021/08/22 02:34:55;;;;;;;8.6;7.65;;;;;;;17.71;86.53809;95298.74;;;;
2021/08/22 02:35:55;;;;;;;8.6;7.65;;;;;;;17.71;86.53809;95298.74;;;;
2021/08/22 02:36:56;;;;;;;10.1;7.749999;;;;;;;17.54;86.66699;95316.41;;;;
2021/08/22 02:37:56;;;;;;;10.1;7.749999;;;;;;;17.54;86.66699;95316.41;;;;
2021/08/22 02:38:57;;;;;;;10.1;7.749999;;;;;;;17.54;86.66699;95316.41;;;;
2021/08/22 02:39:57;;;;;;;10.1;7.749999;;;;;;;17.54;86.66699;95316.41;;;;
2021/08/22 02:40:58;;;;;;;10.1;7.749999;;;;;;;17.54;86.66699;95316.41;;;;
2021/08/22 02:41:58;;;;;;;10.1;7.749999;;;;;;;17.54;86.66699;95316.41;;;;
2021/08/22 02:42:59;;;;;;;10.1;7.749999;;;;;;;17.54;86.66699;95316.41;;;;
2021/08/22 02:43:59;;;;;;;10.1;7.749999;;;;;;;17.54;86.66699;95316.41;;;;
2021/08/22 02:45:00;;;;;;;10.1;7.749999;;;;;;;17.54;86.66699;95316.41;;;;
2021/08/22 02:46:01;;;;;;;10.1;7.749999;;;;;;;17.54;86.66699;95316.41;;;;
2021/08/22 02:47:02;;;;;;;10.1;7.749999;;;;;;;17.54;86.66699;95316.41;;;;
2021/08/22 02:48:03;;;;;;;8.700001;7.799999;;;;;;;17.41;86.94531;95325.97;;;;
2021/08/22 02:49:04;;;;;;;8.700001;7.799999;;;;;;;17.41;86.94531;95325.97;;;;
2021/08/22 02:50:04;;;;;;;8.700001;7.799999;;;;;;;17.41;86.94531;95325.97;;;;
2021/08/22 02:51:06;;;;;;;8.700001;7.799999;;;;;;;17.41;86.94531;95325.97;;;;
2021/08/22 02:52:07;;;;;;;8.700001;7.799999;;;;;;;17.41;86.94531;95325.97;;;;
2021/08/22 02:53:09;;;;;;;8.700001;7.799999;;;;;;;17.41;86.94531;95325.97;;;;
2021/08/22 02:54:10;;;;;;;8.700001;7.799999;;;;;;;17.41;86.94531;95325.97;;;;
2021/08/22 02:55:10;;;;;;;8.700001;7.799999;;;;;;;17.41;86.94531;95325.97;;;;
2021/08/22 02:56:11;;;;;;;8.700001;7.799999;;;;;;;17.41;86.94531;95325.97;;;;
2021/08/22 02:57:11;;;;;;;8.700001;7.799999;;;;;;;17.41;86.94531;95325.97;;;;
2021/08/22 02:58:13;;;;;;;8.15;7.35;;;;;;;17.43;87.19727;95331.56;;;;
2021/08/22 02:59:13;;;;;;;8.15;7.35;;;;;;;17.43;87.19727;95331.56;;;;
2021/08/22 03:00:14;;;;;;;8.15;7.35;;;;;;;17.43;87.19727;95331.56;;;;
2021/08/22 03:01:15;;;;;;;8.15;7.35;;;;;;;17.43;87.19727;95331.56;;;;
2021/08/22 03:02:16;;;;;;;8.15;7.35;;;;;;;17.43;87.19727;95331.56;;;;
2021/08/22 03:03:16;;;;;;;8.15;7.35;;;;;;;17.43;87.19727;95331.56;;;;
2021/08/22 03:04:17;;;;;;;8.15;7.35;;;;;;;17.43;87.19727;95331.56;;;;
2021/08/22 03:05:17;;;;;;;8.15;7.35;;;;;;;17.43;87.19727;95331.56;;;;
2021/08/22 03:06:18;;;;;;;8.15;7.35;;;;;;;17.43;87.19727;95331.56;;;;
2021/08/22 03:07:18;;;;;;;8.15;7.35;;;;;;;17.43;87.19727;95331.56;;;;
2021/08/22 03:08:19;;;;;;;8.15;7.35;;;;;;;17.43;87.19727;95331.56;;;;
2021/08/22 03:09:19;;;;;;;9.400001;8.25;;;;;;;17.43;87.29492;95340.32;;;;
2021/08/22 03:10:20;;;;;;;9.400001;8.25;;;;;;;17.43;87.29492;95340.32;;;;
2021/08/22 03:11:20;;;;;;;9.400001;8.25;;;;;;;17.43;87.29492;95340.32;;;;
2021/08/22 03:12:21;;;;;;;9.400001;8.25;;;;;;;17.43;87.29492;95340.32;;;;
2021/08/22 03:13:21;;;;;;;9.400001;8.25;;;;;;;17.43;87.29492;95340.32;;;;
2021/08/22 03:14:22;;;;;;;9.400001;8.25;;;;;;;17.43;87.29492;95340.32;;;;
2021/08/22 03:15:22;;;;;;;9.400001;8.25;;;;;;;17.43;87.29492;95340.32;;;;
2021/08/22 03:16:23;;;;;;;9.400001;8.25;;;;;;;17.43;87.29492;95340.32;;;;
2021/08/22 03:17:24;;;;;;;9.400001;8.25;;;;;;;17.43;87.29492;95340.32;;;;
2021/08/22 03:18:24;;;;;;;9.400001;8.25;;;;;;;17.43;87.29492;95340.32;;;;
2021/08/22 03:19:25;;;;;;;9.400001;8.25;;;;;;;17.43;87.29492;95340.32;;;;
2021/08/22 03:20:25;;;;;;;8.85;8.000001;;;;;;;17.52;87.53027;95369.14;;;;
2021/08/22 03:21:26;;;;;;;8.85;8.000001;;;;;;;17.52;87.53027;95369.14;;;;
2021/08/22 03:22:26;;;;;;;8.85;8.000001;;;;;;;17.52;87.53027;95369.14;;;;
2021/08/22 03:23:27;;;;;;;8.85;8.000001;;;;;;;17.52;87.53027;95369.14;;;;
2021/08/22 03:24:27;;;;;;;8.85;8.000001;;;;;;;17.52;87.53027;95369.14;;;;
2021/08/22 03:25:28;;;;;;;8.85;8.000001;;;;;;;17.52;87.53027;95369.14;;;;
2021/08/22 03:26:28;;;;;;;8.85;8.000001;;;;;;;17.52;87.53027;95369.14;;;;
2021/08/22 03:27:29;;;;;;;8.85;8.000001;;;;;;;17.52;87.53027;95369.14;;;;
2021/08/22 03:28:29;;;;;;;8.85;8.000001;;;;;;;17.52;87.53027;95369.14;;;;
2021/08/22 03:29:30;;;;;;;8.85;8.000001;;;;;;;17.52;87.53027;95369.14;;;;
2021/08/22 03:30:30;;;;;;;8.450002;7.65;;;;;;;17.67;87.75488;95399.11;;;;
2021/08/22 03:31:31;;;;;;;8.450002;7.65;;;;;;;17.67;87.75488;95399.11;;;;
2021/08/22 03:32:31;;;;;;;8.450002;7.65;;;;;;;17.67;87.75488;95399.11;;;;
2021/08/22 03:33:33;;;;;;;8.450002;7.65;;;;;;;17.67;87.75488;95399.11;;;;
2021/08/22 03:34:33;;;;;;;8.450002;7.65;;;;;;;17.67;87.75488;95399.11;;;;
2021/08/22 03:35:34;;;;;;;8.450002;7.65;;;;;;;17.67;87.75488;95399.11;;;;
2021/08/22 03:36:37;;;;;;;8.450002;7.65;;;;;;;17.67;87.75488;95399.11;;;;
2021/08/22 03:37:37;;;;;;;8.450002;7.65;;;;;;;17.67;87.75488;95399.11;;;;
2021/08/22 03:38:38;;;;;;;8.450002;7.65;;;;;;;17.67;87.75488;95399.11;;;;
2021/08/22 03:39:38;;;;;;;8.450002;7.65;;;;;;;17.67;87.75488;95399.11;;;;
2021/08/22 03:40:39;;;;;;;8.450002;7.65;;;;;;;17.67;87.75488;95399.11;;;;
2021/08/22 03:41:39;;;;;;;7.900001;7.1;;;;;;;17.91;87.91992;95471.18;;;;
2021/08/22 03:42:40;;;;;;;7.900001;7.1;;;;;;;17.91;87.91992;95471.18;;;;
2021/08/22 03:43:40;;;;;;;7.900001;7.1;;;;;;;17.91;87.91992;95471.18;;;;
2021/08/22 03:44:41;;;;;;;7.900001;7.1;;;;;;;17.91;87.91992;95471.18;;;;
2021/08/22 03:45:41;;;;;;;7.900001;7.1;;;;;;;17.91;87.91992;95471.18;;;;
2021/08/22 03:46:42;;;;;;;7.900001;7.1;;;;;;;17.91;87.91992;95471.18;;;;
2021/08/22 03:47:42;;;;;;;7.900001;7.1;;;;;;;17.91;87.91992;95471.18;;;;
2021/08/22 03:48:43;;;;;;;7.900001;7.1;;;;;;;17.91;87.91992;95471.18;;;;
2021/08/22 03:49:43;;;;;;;7.900001;7.1;;;;;;;17.91;87.91992;95471.18;;;;
2021/08/22 03:50:44;;;;;;;7.900001;7.1;;;;;;;17.91;87.91992;95471.18;;;;
2021/08/22 03:51:45;;;;;;;8;7.299999;;;;;;;18.06;87.47266;95500.38;;;;
2021/08/22 03:52:47;;;;;;;8;7.299999;;;;;;;18.06;87.47266;95500.38;;;;
2021/08/22 03:53:48;;;;;;;8;7.299999;;;;;;;18.06;87.47266;95500.38;;;;
2021/08/22 03:54:49;;;;;;;8;7.299999;;;;;;;18.06;87.47266;95500.38;;;;
2021/08/22 03:55:49;;;;;;;8;7.299999;;;;;;;18.06;87.47266;95500.38;;;;
2021/08/22 03:56:50;;;;;;;8;7.299999;;;;;;;18.06;87.47266;95500.38;;;;
2021/08/22 03:57:50;;;;;;;8;7.299999;;;;;;;18.06;87.47266;95500.38;;;;
2021/08/22 03:58:51;;;;;;;8;7.299999;;;;;;;18.06;87.47266;95500.38;;;;
2021/08/22 03:59:51;;;;;;;8;7.299999;;;;;;;18.06;87.47266;95500.38;;;;
2021/08/22 04:00:52;;;;;;;8;7.299999;;;;;;;18.06;87.47266;95500.38;;;;
2021/08/22 04:01:53;;;;;;;8;7.299999;;;;;;;18.06;87.47266;95500.38;;;;
2021/08/22 04:02:53;;;;;;;11.75;10.4;;;;;;;17.82;87.57813;95515.18;;;;
2021/08/22 04:03:54;;;;;;;11.75;10.4;;;;;;;17.82;87.57813;95515.18;;;;
2021/08/22 04:04:54;;;;;;;11.75;10.4;;;;;;;17.82;87.57813;95515.18;;;;
2021/08/22 04:05:55;;;;;;;11.75;10.4;;;;;;;17.82;87.57813;95515.18;;;;
2021/08/22 04:06:55;;;;;;;11.75;10.4;;;;;;;17.82;87.57813;95515.18;;;;
2021/08/22 04:07:59;;;;;;;11.75;10.4;;;;;;;17.82;87.57813;95515.18;;;;
2021/08/22 04:09:00;;;;;;;11.75;10.4;;;;;;;17.82;87.57813;95515.18;;;;
2021/08/22 04:10:01;;;;;;;11.75;10.4;;;;;;;17.82;87.57813;95515.18;;;;
2021/08/22 04:11:04;;;;;;;11.75;10.4;;;;;;;17.82;87.57813;95515.18;;;;
2021/08/22 04:12:04;;;;;;;11.75;10.4;;;;;;;17.82;87.57813;95515.18;;;;
2021/08/22 04:13:05;;;;;;;11.25;10.1;;;;;;;17.56;89.3457;95512.18;;;;
2021/08/22 04:14:09;;;;;;;11.25;10.1;;;;;;;17.56;89.3457;95512.18;;;;
2021/08/22 04:15:09;;;;;;;11.25;10.1;;;;;;;17.56;89.3457;95512.18;;;;
2021/08/22 04:16:10;;;;;;;11.25;10.1;;;;;;;17.56;89.3457;95512.18;;;;
2021/08/22 04:17:11;;;;;;;11.25;10.1;;;;;;;17.56;89.3457;95512.18;;;;
2021/08/22 04:18:11;;;;;;;11.25;10.1;;;;;;;17.56;89.3457;95512.18;;;;
2021/08/22 04:19:12;;;;;;;11.25;10.1;;;;;;;17.56;89.3457;95512.18;;;;
2021/08/22 04:20:13;;;;;;;11.25;10.1;;;;;;;17.56;89.3457;95512.18;;;;
2021/08/22 04:21:14;;;;;;;11.25;10.1;;;;;;;17.56;89.3457;95512.18;;;;
2021/08/22 04:22:14;;;;;;;11.25;10.1;;;;;;;17.56;89.3457;95512.18;;;;
2021/08/22 04:23:15;;;;;;;11.25;10.1;;;;;;;17.56;89.3457;95512.18;;;;
2021/08/22 04:24:16;;;;;;;12.25;10.95;;;;;;;17.39;90.70508;95507.11;;;;
2021/08/22 04:25:16;;;;;;;12.25;10.95;;;;;;;17.39;90.70508;95507.11;;;;
2021/08/22 04:26:17;;;;;;;12.25;10.95;;;;;;;17.39;90.70508;95507.11;;;;
2021/08/22 04:27:17;;;;;;;12.25;10.95;;;;;;;17.39;90.70508;95507.11;;;;
2021/08/22 04:28:18;;;;;;;12.25;10.95;;;;;;;17.39;90.70508;95507.11;;;;
2021/08/22 04:29:19;;;;;;;12.25;10.95;;;;;;;17.39;90.70508;95507.11;;;;
2021/08/22 04:30:20;;;;;;;12.25;10.95;;;;;;;17.39;90.70508;95507.11;;;;
2021/08/22 04:31:20;;;;;;;12.25;10.95;;;;;;;17.39;90.70508;95507.11;;;;
2021/08/22 04:32:21;;;;;;;12.25;10.95;;;;;;;17.39;90.70508;95507.11;;;;
2021/08/22 04:33:22;;;;;;;12.25;10.95;;;;;;;17.39;90.70508;95507.11;;;;
2021/08/22 04:34:22;;;;;;;13.9;11.8;;;;;;;17.29;92.09375;95511.6;;;;
2021/08/22 04:35:23;;;;;;;13.9;11.8;;;;;;;17.29;92.09375;95511.6;;;;
2021/08/22 04:36:23;;;;;;;13.9;11.8;;;;;;;17.29;92.09375;95511.6;;;;
2021/08/22 04:37:24;;;;;;;13.9;11.8;;;;;;;17.29;92.09375;95511.6;;;;
2021/08/22 04:38:24;;;;;;;13.9;11.8;;;;;;;17.29;92.09375;95511.6;;;;
2021/08/22 04:39:25;;;;;;;13.9;11.8;;;;;;;17.29;92.09375;95511.6;;;;
2021/08/22 04:40:26;;;;;;;13.9;11.8;;;;;;;17.29;92.09375;95511.6;;;;
2021/08/22 04:41:26;;;;;;;13.9;11.8;;;;;;;17.29;92.09375;95511.6;;;;
2021/08/22 04:42:27;;;;;;;13.9;11.8;;;;;;;17.29;92.09375;95511.6;;;;
2021/08/22 04:43:28;;;;;;;13.9;11.8;;;;;;;17.29;92.09375;95511.6;;;;
2021/08/22 04:44:28;;;;;;;13.9;11.8;;;;;;;17.29;92.09375;95511.6;;;;
2021/08/22 04:45:29;;;;;;;13;11.15;;;;;;;17.19;93.47656;95526.07;;;;
2021/08/22 04:46:29;;;;;;;13;11.15;;;;;;;17.19;93.47656;95526.07;;;;
2021/08/22 04:47:30;;;;;;;13;11.15;;;;;;;17.19;93.47656;95526.07;;;;
2021/08/22 04:48:30;;;;;;;13;11.15;;;;;;;17.19;93.47656;95526.07;;;;
2021/08/22 04:49:31;;;;;;;13;11.15;;;;;;;17.19;93.47656;95526.07;;;;
2021/08/22 04:50:31;;;;;;;13;11.15;;;;;;;17.19;93.47656;95526.07;;;;
2021/08/22 04:51:31;;;;;;;13;11.15;;;;;;;17.19;93.47656;95526.07;;;;
2021/08/22 04:52:32;;;;;;;13;11.15;;;;;;;17.19;93.47656;95526.07;;;;
2021/08/22 04:53:34;;;;;;;13;11.15;;;;;;;17.19;93.47656;95526.07;;;;
2021/08/22 04:54:34;;;;;;;13;11.15;;;;;;;17.19;93.47656;95526.07;;;;
2021/08/22 04:55:35;;;;;;;12.05;10.75;;;;;;;17.12;95.43652;95486.49;;;;
2021/08/22 04:56:35;;;;;;;12.05;10.75;;;;;;;17.12;95.43652;95486.49;;;;
2021/08/22 04:57:39;;;;;;;12.05;10.75;;;;;;;17.12;95.43652;95486.49;;;;
2021/08/22 04:58:40;;;;;;;12.05;10.75;;;;;;;17.12;95.43652;95486.49;;;;
2021/08/22 04:59:40;;;;;;;12.05;10.75;;;;;;;17.12;95.43652;95486.49;;;;
2021/08/22 05:00:40;;;;;;;12.05;10.75;;;;;;;17.12;95.43652;95486.49;;;;
2021/08/22 05:01:41;;;;;;;12.05;10.75;;;;;;;17.12;95.43652;95486.49;;;;
2021/08/22 05:02:41;;;;;;;12.05;10.75;;;;;;;17.12;95.43652;95486.49;;;;
2021/08/22 05:03:42;;;;;;;12.05;10.75;;;;;;;17.12;95.43652;95486.49;;;;
2021/08/22 05:04:43;;;;;;;12.05;10.75;;;;;;;17.12;95.43652;95486.49;;;;
2021/08/22 05:05:43;;;;;;;12.05;10.75;;;;;;;17.12;95.43652;95486.49;;;;
2021/08/22 05:06:44;;;;;;;11.6;9.900001;;;;;;;17.09;97.53418;95451.57;;;;
2021/08/22 05:07:44;;;;;;;11.6;9.900001;;;;;;;17.09;97.53418;95451.57;;;;
2021/08/22 05:08:44;;;;;;;11.6;9.900001;;;;;;;17.09;97.53418;95451.57;;;;
2021/08/22 05:09:45;;;;;;;11.6;9.900001;;;;;;;17.09;97.53418;95451.57;;;;
2021/08/22 05:10:48;;;;;;;11.6;9.900001;;;;;;;17.09;97.53418;95451.57;;;;
2021/08/22 05:11:49;;;;;;;11.6;9.900001;;;;;;;17.09;97.53418;95451.57;;;;
2021/08/22 05:12:49;;;;;;;11.6;9.900001;;;;;;;17.09;97.53418;95451.57;;;;
2021/08/22 05:13:50;;;;;;;11.6;9.900001;;;;;;;17.09;97.53418;95451.57;;;;
2021/08/22 05:14:50;;;;;;;11.6;9.900001;;;;;;;17.09;97.53418;95451.57;;;;
2021/08/22 05:15:51;;;;;;;11.6;9.900001;;;;;;;17.09;97.53418;95451.57;;;;
2021/08/22 05:16:51;;;;;;;11.7;9.700001;;;;;;;17.1;99.32617;95431.78;;;;
2021/08/22 05:17:52;;;;;;;11.7;9.700001;;;;;;;17.1;99.32617;95431.78;;;;
2021/08/22 05:18:52;;;;;;;11.7;9.700001;;;;;;;17.1;99.32617;95431.78;;;;
2021/08/22 05:19:53;;;;;;;11.7;9.700001;;;;;;;17.1;99.32617;95431.78;;;;
2021/08/22 05:20:53;;;;;;;11.7;9.700001;;;;;;;17.1;99.32617;95431.78;;;;
2021/08/22 05:21:54;;;;;;;11.7;9.700001;;;;;;;17.1;99.32617;95431.78;;;;
2021/08/22 05:22:54;;;;;;;11.7;9.700001;;;;;;;17.1;99.32617;95431.78;;;;
2021/08/22 05:23:55;;;;;;;11.7;9.700001;;;;;;;17.1;99.32617;95431.78;;;;
2021/08/22 05:24:55;;;;;;;11.7;9.700001;;;;;;;17.1;99.32617;95431.78;;;;
2021/08/22 05:25:55;;;;;;;11.7;9.700001;;;;;;;17.1;99.32617;95431.78;;;;
2021/08/22 05:26:56;;;;;;;11.7;9.700001;;;;;;;17.1;99.32617;95431.78;;;;
2021/08/22 05:27:57;;;;;;;9;8.1;;;;;;;17.13;100;95430.69;;;;
2021/08/22 05:28:57;;;;;;;9;8.1;;;;;;;17.13;100;95430.69;;;;
2021/08/22 05:29:58;;;;;;;9;8.1;;;;;;;17.13;100;95430.69;;;;
2021/08/22 05:30:58;;;;;;;9;8.1;;;;;;;17.13;100;95430.69;;;;
2021/08/22 05:32:01;;;;;;;9;8.1;;;;;;;17.13;100;95430.69;;;;
2021/08/22 05:33:01;;;;;;;9;8.1;;;;;;;17.13;100;95430.69;;;;
2021/08/22 05:34:02;;;;;;;9;8.1;;;;;;;17.13;100;95430.69;;;;
2021/08/22 05:35:02;;;;;;;9;8.1;;;;;;;17.13;100;95430.69;;;;
2021/08/22 05:36:03;;;;;;;9;8.1;;;;;;;17.13;100;95430.69;;;;
2021/08/22 05:37:22;;;;;;;9;8.1;;;;;;;17.13;100;95430.69;;;;
2021/08/22 05:38:22;;;;;;;8.549999;7.55;;;;;;;17.19;100;95417.46;;;;
2021/08/22 05:39:23;;;;;;;8.549999;7.55;;;;;;;17.19;100;95417.46;;;;